Terminal Aerodrome Forecast
Issued by NWS

Home | Current Version | Previous Version | Graphics & Text | Print | Product List | Glossary On
Versions: 1 2 3 4 5 6 7 8 9 10 11 12
254
FTUS42 KMHX 061743
TAFISO
TAF
KISO 061743Z 0618/0718 03007KT P6SM SCT250
     FM062100 03006KT P6SM OVC060
     FM070700 01010KT P6SM -RA BKN040
     FM071300 02016G22KT 4SM -RA BR OVC015
      AMD LTD TO CLD VIS AND WIND=

USA.gov is the U.S. government's official web portal to all federal, state and local government web resources and services.